Time,TemperatureF,DewpointF,PressureIn,WindDirection,WindDirectionDegrees,WindSpeedMPH,WindSpeedGustMPH,Humidity,HourlyPrecipIn,Conditions,Clouds,dailyrainin,SoftwareType,DateUTC
2013-06-18 00:07:00,85.4,68.0,29.86,SW,228,0.0,4.0,56,0.00,,,0.00,weatherlink.com 1.10,2013-06-18 05:07:00,
2013-06-18 00:22:00,85.0,68.0,29.88,WSW,239,3.0,4.0,57,0.00,,,0.00,weatherlink.com 1.10,2013-06-18 05:22:00,
2013-06-18 00:37:00,85.0,69.0,29.89,WNW,295,4.0,13.0,58,0.00,,,0.00,weatherlink.com 1.10,2013-06-18 05:37:00,
2013-06-18 00:52:00,84.5,68.0,29.88,WNW,297,4.0,6.0,57,0.00,,,0.00,weatherlink.com 1.10,2013-06-18 05:52:00,
2013-06-18 01:08:00,83.3,67.0,29.87,WNW,288,0.0,2.0,59,0.00,,,0.00,weatherlink.com 1.10,2013-06-18 06:08:00,
2013-06-18 01:23:00,82.6,66.0,29.88,WSW,250,1.0,4.0,58,0.00,,,0.00,weatherlink.com 1.10,2013-06-18 06:23:00,
2013-06-18 01:38:00,82.3,67.0,29.87,SSW,208,3.0,7.0,61,0.00,,,0.00,weatherlink.com 1.10,2013-06-18 06:38:00,
2013-06-18 01:53:00,82.4,67.0,29.87,SSW,201,4.0,8.0,60,0.00,,,0.00,weatherlink.com 1.10,2013-06-18 06:53:00,
2013-06-18 02:08:00,82.4,69.0,29.86,South,187,5.0,10.0,65,0.00,,,0.00,weatherlink.com 1.10,2013-06-18 07:08:00,
2013-06-18 02:23:00,82.4,72.0,29.86,SSW,201,6.0,12.0,71,0.00,,,0.00,weatherlink.com 1.10,2013-06-18 07:23:00,
2013-06-18 02:38:00,82.9,73.0,29.86,South,185,5.0,13.0,71,0.00,,,0.00,weatherlink.com 1.10,2013-06-18 07:38:00,
2013-06-18 02:53:00,82.6,73.0,29.86,South,187,3.0,14.0,72,0.00,,,0.00,weatherlink.com 1.10,2013-06-18 07:53:00,
2013-06-18 03:08:00,82.3,73.0,29.88,WSW,245,2.0,11.0,73,0.00,,,0.00,weatherlink.com 1.10,2013-06-18 08:08:00,
2013-06-18 03:23:00,81.8,65.0,29.89,WNW,286,6.0,21.0,56,0.00,,,0.00,weatherlink.com 1.10,2013-06-18 08:23:00,
2013-06-18 03:54:00,72.3,68.0,29.88,WSW,258,5.0,13.0,85,0.25,,,0.25,weatherlink.com 1.10,2013-06-18 08:54:00,
2013-06-18 04:08:00,71.3,68.0,29.90,West,267,1.0,7.0,89,0.25,,,0.25,weatherlink.com 1.10,2013-06-18 09:08:00,
2013-06-18 04:23:00,71.3,69.0,29.92,SW,229,0.0,4.0,91,0.25,,,0.25,weatherlink.com 1.10,2013-06-18 09:23:00,
2013-06-18 04:38:00,71.4,69.0,29.92,WSW,240,2.0,5.0,92,0.16,,,0.25,weatherlink.com 1.10,2013-06-18 09:38:00,
2013-06-18 04:53:00,71.6,70.0,29.94,WSW,239,0.0,3.0,93,0.03,,,0.27,weatherlink.com 1.10,2013-06-18 09:53:00,
2013-06-18 05:08:00,71.5,69.0,29.93,WSW,239,0.0,3.0,93,0.05,,,0.30,weatherlink.com 1.10,2013-06-18 10:08:00,
2013-06-18 05:29:00,71.4,70.0,29.91,SSW,202,0.0,3.0,94,0.12,,,0.37,weatherlink.com 1.10,2013-06-18 10:29:00,
2013-06-18 05:38:00,71.3,69.0,29.89,SSW,199,0.0,3.0,93,0.14,,,0.39,weatherlink.com 1.10,2013-06-18 10:38:00,
2013-06-18 05:53:00,71.2,69.0,29.88,SSW,199,0.0,3.0,94,0.13,,,0.40,weatherlink.com 1.10,2013-06-18 10:53:00,
2013-06-18 06:09:00,71.1,69.0,29.92,SSW,209,5.0,9.0,94,0.12,,,0.42,weatherlink.com 1.10,2013-06-18 11:09:00,
2013-06-18 06:24:00,70.9,69.0,29.94,West,278,1.0,4.0,94,0.08,,,0.43,weatherlink.com 1.10,2013-06-18 11:24:00,
2013-06-18 06:39:00,71.0,69.0,29.95,SW,218,2.0,9.0,94,0.04,,,0.43,weatherlink.com 1.10,2013-06-18 11:39:00,
2013-06-18 06:54:00,70.9,69.0,29.94,South,187,6.0,15.0,94,0.03,,,0.43,weatherlink.com 1.10,2013-06-18 11:54:00,
2013-06-18 07:09:00,70.5,68.0,29.92,SSW,204,7.0,11.0,93,0.00,,,0.43,weatherlink.com 1.10,2013-06-18 12:09:00,
2013-06-18 07:24:00,70.0,68.0,29.92,South,183,3.0,8.0,94,0.01,,,0.44,weatherlink.com 1.10,2013-06-18 12:24:00,
2013-06-18 07:39:00,70.0,68.0,29.92,SE,143,4.0,11.0,94,0.01,,,0.44,weatherlink.com 1.10,2013-06-18 12:39:00,
2013-06-18 07:54:00,70.2,69.0,29.93,SE,145,3.0,8.0,94,0.01,,,0.44,weatherlink.com 1.10,2013-06-18 12:54:00,
2013-06-18 08:09:00,70.3,69.0,29.91,SE,129,9.0,13.0,94,0.01,,,0.44,weatherlink.com 1.10,2013-06-18 13:09:00,
2013-06-18 08:24:00,70.2,69.0,29.91,SSW,197,4.0,14.0,94,0.00,,,0.44,weatherlink.com 1.10,2013-06-18 13:24:00,
2013-06-18 08:39:00,70.4,69.0,29.92,SE,136,5.0,10.0,95,0.00,,,0.44,weatherlink.com 1.10,2013-06-18 13:39:00,
2013-06-18 08:54:00,70.4,69.0,29.94,South,171,4.0,7.0,95,0.00,,,0.44,weatherlink.com 1.10,2013-06-18 13:54:00,
2013-06-18 09:09:00,71.1,70.0,29.95,SSW,201,5.0,8.0,95,0.00,,,0.44,weatherlink.com 1.10,2013-06-18 14:09:00,
2013-06-18 09:24:00,72.3,71.0,29.94,South,183,3.0,8.0,94,0.00,,,0.44,weatherlink.com 1.10,2013-06-18 14:24:00,
2013-06-18 09:39:00,73.1,71.0,29.95,SW,230,0.0,5.0,93,0.00,,,0.44,weatherlink.com 1.10,2013-06-18 14:39:00,
2013-06-18 09:54:00,73.1,71.0,29.96,WNW,284,1.0,6.0,93,0.00,,,0.44,weatherlink.com 1.10,2013-06-18 14:54:00,
2013-06-18 10:09:00,73.1,70.0,29.95,West,280,3.0,5.0,91,0.00,,,0.44,weatherlink.com 1.10,2013-06-18 15:09:00,
2013-06-18 10:24:00,74.7,72.0,29.95,West,278,4.0,8.0,90,0.00,,,0.44,weatherlink.com 1.10,2013-06-18 15:24:00,
2013-06-18 10:39:00,75.8,72.0,29.95,WNW,283,2.0,10.0,87,0.00,,,0.44,weatherlink.com 1.10,2013-06-18 15:39:00,
2013-06-18 10:54:00,78.4,74.0,29.95,West,263,5.0,9.0,86,0.00,,,0.44,weatherlink.com 1.10,2013-06-18 15:54:00,
2013-06-18 11:09:00,79.6,73.0,29.95,West,260,0.0,11.0,80,0.00,,,0.44,weatherlink.com 1.10,2013-06-18 16:09:00,
2013-06-18 11:24:00,80.9,72.0,29.95,West,276,3.0,9.0,74,0.00,,,0.44,weatherlink.com 1.10,2013-06-18 16:24:00,
2013-06-18 11:39:00,82.1,72.0,29.95,NW,304,2.0,10.0,71,0.00,,,0.44,weatherlink.com 1.10,2013-06-18 16:39:00,
2013-06-18 11:54:00,83.0,72.0,29.94,NW,326,2.0,7.0,70,0.00,,,0.44,weatherlink.com 1.10,2013-06-18 16:54:00,
2013-06-18 12:09:00,84.1,72.0,29.94,North,353,3.0,7.0,67,0.00,,,0.44,weatherlink.com 1.10,2013-06-18 17:09:00,
2013-06-18 12:24:00,85.1,72.0,29.93,North,351,6.0,7.0,64,0.00,,,0.44,weatherlink.com 1.10,2013-06-18 17:24:00,
2013-06-18 12:39:00,85.7,72.0,29.94,West,259,4.0,10.0,63,0.00,,,0.44,weatherlink.com 1.10,2013-06-18 17:39:00,
2013-06-18 12:54:00,87.0,72.0,29.93,SW,222,2.0,9.0,61,0.00,,,0.44,weatherlink.com 1.10,2013-06-18 17:54:00,
2013-06-18 13:09:00,85.9,72.0,29.93,West,262,3.0,5.0,63,0.00,,,0.44,weatherlink.com 1.10,2013-06-18 18:09:00,
2013-06-18 13:24:00,84.5,71.0,29.93,SW,235,1.0,5.0,64,0.00,,,0.44,weatherlink.com 1.10,2013-06-18 18:24:00,
2013-06-18 13:39:00,84.7,72.0,29.93,WNW,285,3.0,5.0,65,0.00,,,0.44,weatherlink.com 1.10,2013-06-18 18:39:00,
2013-06-18 13:54:00,78.0,71.0,29.93,North,10,3.0,14.0,80,0.02,,,0.46,weatherlink.com 1.10,2013-06-18 18:54:00,
2013-06-18 14:09:00,78.1,74.0,29.93,ENE,74,2.0,4.0,86,0.02,,,0.46,weatherlink.com 1.10,2013-06-18 19:09:00,
2013-06-18 14:24:00,80.3,74.0,29.92,ENE,73,1.0,4.0,80,0.02,,,0.46,weatherlink.com 1.10,2013-06-18 19:24:00,
2013-06-18 14:39:00,83.6,75.0,29.91,East,89,3.0,6.0,74,0.02,,,0.46,weatherlink.com 1.10,2013-06-18 19:39:00,
2013-06-18 14:54:00,86.3,73.0,29.91,SE,142,2.0,4.0,65,0.00,,,0.46,weatherlink.com 1.10,2013-06-18 19:54:00,
2013-06-18 15:09:00,86.5,74.0,29.91,ESE,110,1.0,7.0,66,0.00,,,0.46,weatherlink.com 1.10,2013-06-18 20:09:00,
2013-06-18 15:24:00,86.9,71.0,29.90,ENE,74,0.0,6.0,59,0.00,,,0.46,weatherlink.com 1.10,2013-06-18 20:24:00,
2013-06-18 15:39:00,88.4,73.0,29.89,ESE,110,0.0,7.0,60,0.00,,,0.46,weatherlink.com 1.10,2013-06-18 20:39:00,
2013-06-18 15:54:00,89.2,71.0,29.89,SE,141,1.0,8.0,56,0.00,,,0.46,weatherlink.com 1.10,2013-06-18 20:54:00,
2013-06-18 16:09:00,88.1,72.0,29.88,SSE,156,6.0,8.0,59,0.00,,,0.46,weatherlink.com 1.10,2013-06-18 21:09:00,
2013-06-18 16:24:00,87.5,73.0,29.87,SE,137,7.0,9.0,63,0.00,,,0.46,weatherlink.com 1.10,2013-06-18 21:24:00,
2013-06-18 16:39:00,86.8,73.0,29.87,ESE,115,5.0,9.0,63,0.00,,,0.46,weatherlink.com 1.10,2013-06-18 21:39:00,
2013-06-18 16:54:00,86.9,72.0,29.86,SSE,149,3.0,8.0,62,0.00,,,0.46,weatherlink.com 1.10,2013-06-18 21:54:00,
2013-06-18 17:09:00,89.3,72.0,29.86,SSW,201,3.0,8.0,56,0.00,,,0.46,weatherlink.com 1.10,2013-06-18 22:09:00,
2013-06-18 17:24:00,89.6,71.0,29.86,SSE,166,2.0,7.0,54,0.00,,,0.46,weatherlink.com 1.10,2013-06-18 22:24:00,
2013-06-18 17:39:00,90.1,72.0,29.85,SE,127,6.0,6.0,55,0.00,,,0.46,weatherlink.com 1.10,2013-06-18 22:39:00,
2013-06-18 17:54:00,89.7,70.0,29.85,SSE,156,0.0,7.0,53,0.00,,,0.46,weatherlink.com 1.10,2013-06-18 22:54:00,
2013-06-18 18:09:00,88.6,71.0,29.85,South,175,1.0,5.0,56,0.00,,,0.46,weatherlink.com 1.10,2013-06-18 23:09:00,
2013-06-18 18:24:00,88.8,72.0,29.84,NE,52,2.0,5.0,57,0.00,,,0.46,weatherlink.com 1.10,2013-06-18 23:24:00,
2013-06-18 18:39:00,87.6,71.0,29.84,ENE,74,5.0,5.0,59,0.00,,,0.46,weatherlink.com 1.10,2013-06-18 23:39:00,
2013-06-18 18:54:00,88.7,70.0,29.84,East,82,1.0,6.0,55,0.00,,,0.46,weatherlink.com 1.10,2013-06-18 23:54:00,
2013-06-18 19:09:00,88.0,71.0,29.84,East,92,1.0,7.0,57,0.00,,,0.46,weatherlink.com 1.10,2013-06-19 00:09:00,
2013-06-18 19:24:00,88.1,71.0,29.84,ESE,109,2.0,7.0,58,0.00,,,0.46,weatherlink.com 1.10,2013-06-19 00:24:00,
2013-06-18 19:39:00,86.9,73.0,29.84,ESE,109,1.0,4.0,63,0.00,,,0.46,weatherlink.com 1.10,2013-06-19 00:39:00,
2013-06-18 19:54:00,86.5,72.0,29.85,East,99,2.0,8.0,63,0.00,,,0.46,weatherlink.com 1.10,2013-06-19 00:54:00,
2013-06-18 20:09:00,85.5,72.0,29.85,East,97,4.0,9.0,65,0.00,,,0.46,weatherlink.com 1.10,2013-06-19 01:09:00,
2013-06-18 20:24:00,84.5,72.0,29.85,East,98,3.0,5.0,67,0.00,,,0.46,weatherlink.com 1.10,2013-06-19 01:24:00,
2013-06-18 20:39:00,83.4,74.0,29.85,East,98,2.0,3.0,73,0.00,,,0.46,weatherlink.com 1.10,2013-06-19 01:39:00,
2013-06-18 20:54:00,82.6,73.0,29.86,ESE,106,4.0,5.0,73,0.00,,,0.46,weatherlink.com 1.10,2013-06-19 01:54:00,
2013-06-18 21:10:00,82.7,73.0,29.86,SE,126,3.0,9.0,72,0.00,,,0.46,weatherlink.com 1.10,2013-06-19 02:10:00,
2013-06-18 21:25:00,82.2,73.0,29.87,ESE,120,6.0,8.0,74,0.00,,,0.46,weatherlink.com 1.10,2013-06-19 02:25:00,
2013-06-18 21:40:00,81.6,73.0,29.87,ESE,116,5.0,8.0,75,0.00,,,0.46,weatherlink.com 1.10,2013-06-19 02:40:00,
2013-06-18 21:55:00,81.0,73.0,29.87,ESE,117,1.0,8.0,76,0.00,,,0.46,weatherlink.com 1.10,2013-06-19 02:55:00,
2013-06-18 22:10:00,80.4,73.0,29.87,ESE,114,2.0,7.0,77,0.00,,,0.46,weatherlink.com 1.10,2013-06-19 03:10:00,
2013-06-18 22:25:00,79.7,72.0,29.88,ESE,119,2.0,7.0,78,0.00,,,0.46,weatherlink.com 1.10,2013-06-19 03:25:00,
2013-06-18 22:40:00,79.3,72.0,29.88,ESE,119,2.0,6.0,79,0.00,,,0.46,weatherlink.com 1.10,2013-06-19 03:40:00,
2013-06-18 22:55:00,79.3,72.0,29.88,ESE,120,5.0,7.0,79,0.00,,,0.46,weatherlink.com 1.10,2013-06-19 03:55:00,
2013-06-18 23:10:00,79.4,72.0,29.89,ESE,118,7.0,10.0,78,0.00,,,0.46,weatherlink.com 1.10,2013-06-19 04:10:00,
2013-06-18 23:25:00,79.7,73.0,29.89,ESE,118,5.0,8.0,79,0.00,,,0.46,weatherlink.com 1.10,2013-06-19 04:25:00,
2013-06-18 23:40:00,79.7,73.0,29.90,SE,124,5.0,9.0,79,0.00,,,0.46,weatherlink.com 1.10,2013-06-19 04:40:00,
2013-06-18 23:55:00,79.6,73.0,29.90,SE,124,5.0,8.0,80,0.00,,,0.46,weatherlink.com 1.10,2013-06-19 04:55:00,